Time;durP1;ratioP1;P1;durP2;ratioP2;P2;SDS_P1;SDS_P2;PMS_P1;PMS_P2;Temp;Humidity;BMP_temperature;BMP_pressure;BME280_temperature;BME280_humidity;BME280_pressure;Samples;Min_cycle;Max_cycle;Signal;HPM_P1;HPM_P2
2021/10/16 00:00:48;;;;;;;;;;;;;;;20.12;41.01;102309.66;5025570;28;20011;-84
2021/10/16 00:03:13;;;;;;;;;;;;;;;19.84;41.11;102318.81;5024498;28;19929;-84
2021/10/16 00:05:39;;;;;;;;;;;;;;;19.87;41.07;102307.63;5024769;28;19918;-84
2021/10/16 00:08:04;;;;;;;;;;;;;;;20.17;40.57;102313.03;5024421;28;20359;-85
2021/10/16 00:10:29;;;;;;;;;;;;;;;19.63;41.76;102312.78;5025130;28;20012;-86
2021/10/16 00:12:55;;;;;;;;;;;;;;;19.71;41.52;102318.66;5026042;28;19917;-85
2021/10/16 00:15:20;;;;;;;;;;;;;;;19.78;41.74;102317.34;5027519;28;19960;-85
2021/10/16 00:17:45;;;;;;;;;;;;;;;19.70;41.96;102318.75;5028915;28;19968;-84
2021/10/16 00:20:11;;;;;;;;;;;;;;;19.92;41.42;102307.34;5021846;28;19977;-85
2021/10/16 00:22:36;;;;;;;;;;;;;;;19.82;41.82;102318.00;5022363;28;19913;-85
2021/10/16 00:25:01;;;;;;;;;;;;;;;19.93;41.43;102311.84;5022240;28;20291;-85
2021/10/16 00:27:27;;;;;;;;;;;;;;;19.53;42.33;102314.34;5021451;28;19948;-88
2021/10/16 00:29:52;;;;;;;;;;;;;;;19.46;42.61;102309.22;5021754;28;19921;-85
2021/10/16 00:32:17;;;;;;;;;;;;;;;19.77;41.92;102307.31;5020360;28;19922;-86
2021/10/16 00:34:42;;;;;;;;;;;;;;;19.74;41.94;102320.34;5011696;28;20005;-86
2021/10/16 00:37:08;;;;;;;;;;;;;;;19.57;42.09;102310.44;5022543;28;19975;-86
2021/10/16 00:39:33;;;;;;;;;;;;;;;19.95;41.22;102301.66;5023007;28;20308;-86
2021/10/16 00:41:59;;;;;;;;;;;;;;;19.88;41.51;102298.41;5056364;28;20375;-85
2021/10/16 00:44:25;;;;;;;;;;;;;;;19.72;41.60;102306.72;5023328;28;19925;-86
2021/10/16 00:46:52;;;;;;;;;;;;;;;19.54;41.58;102305.13;5022664;28;19928;-86
2021/10/16 00:49:17;;;;;;;;;;;;;;;19.67;41.19;102306.09;5023236;28;19977;-85
2021/10/16 00:51:43;;;;;;;;;;;;;;;19.90;41.00;102298.28;5022606;28;19956;-85
2021/10/16 00:54:08;;;;;;;;;;;;;;;20.08;40.71;102308.13;5022598;28;19921;-85
2021/10/16 00:56:41;;;;;;;;;;;;;;;20.08;40.62;102299.88;5023499;28;19980;-85
2021/10/16 00:59:06;;;;;;;;;;;;;;;19.99;40.97;102303.22;5023224;28;20367;-86
2021/10/16 01:01:32;;;;;;;;;;;;;;;19.75;41.09;102308.41;5056172;28;19918;-86
2021/10/16 01:03:58;;;;;;;;;;;;;;;19.88;41.20;102294.78;5023599;28;19929;-87
2021/10/16 01:06:24;;;;;;;;;;;;;;;19.57;41.49;102304.94;5023374;28;19918;-86
2021/10/16 01:08:51;;;;;;;;;;;;;;;19.36;42.13;102294.31;5024551;28;19959;-84
2021/10/16 01:11:17;;;;;;;;;;;;;;;19.63;41.77;102296.31;5023796;28;19972;-86
2021/10/16 01:13:42;;;;;;;;;;;;;;;19.54;41.87;102296.91;5024220;28;20298;-86
2021/10/16 01:16:07;;;;;;;;;;;;;;;19.57;41.92;102299.44;5024758;28;19926;-86
2021/10/16 01:18:33;;;;;;;;;;;;;;;19.65;41.86;102297.97;5025469;28;19902;-86
2021/10/16 01:21:06;;;;;;;;;;;;;;;19.40;42.01;102297.72;5022876;28;19924;-86
2021/10/16 01:23:35;;;;;;;;;;;;;;;18.91;42.93;102293.38;5023561;28;19988;-86
2021/10/16 01:26:04;;;;;;;;;;;;;;;18.86;43.05;102295.53;5054933;28;19918;-83
2021/10/16 01:28:29;;;;;;;;;;;;;;;19.55;41.86;102296.81;5022956;28;19924;-86
2021/10/16 01:30:56;;;;;;;;;;;;;;;19.23;42.14;102285.94;5021992;28;19918;-86
2021/10/16 01:33:22;;;;;;;;;;;;;;;19.87;41.10;102290.25;5054370;28;20367;-86
2021/10/16 01:35:57;;;;;;;;;;;;;;;19.92;40.70;102289.00;5055104;28;20069;-85
2021/10/16 01:38:23;;;;;;;;;;;;;;;19.62;41.02;102289.06;5055376;28;19968;-85
2021/10/16 01:40:48;;;;;;;;;;;;;;;19.40;41.71;102284.00;5022200;28;19921;-86
2021/10/16 01:43:13;;;;;;;;;;;;;;;19.63;41.25;102290.81;5054983;28;19928;-86
2021/10/16 01:45:38;;;;;;;;;;;;;;;19.58;41.16;102287.47;5022997;28;19931;-84
2021/10/16 01:48:04;;;;;;;;;;;;;;;19.24;41.91;102275.84;5021429;28;19972;-86
2021/10/16 01:50:35;;;;;;;;;;;;;;;19.44;41.75;102275.47;5022493;28;19917;-86
2021/10/16 01:53:06;;;;;;;;;;;;;;;19.40;41.88;102275.78;5021574;28;20287;-85
2021/10/16 01:55:31;;;;;;;;;;;;;;;19.57;41.65;102275.63;5055984;28;20295;-86
2021/10/16 01:58:03;;;;;;;;;;;;;;;19.48;41.97;102279.81;5023766;28;19923;-86
2021/10/16 02:00:28;;;;;;;;;;;;;;;19.76;41.04;102277.19;5021142;28;20023;-87
2021/10/16 02:02:53;;;;;;;;;;;;;;;19.72;41.08;102273.75;5053561;28;19971;-86
2021/10/16 02:05:18;;;;;;;;;;;;;;;19.60;41.28;102271.81;5023200;28;19925;-87
2021/10/16 02:07:44;;;;;;;;;;;;;;;19.59;41.55;102272.78;5020135;28;19921;-87
2021/10/16 02:10:09;;;;;;;;;;;;;;;19.39;42.09;102280.38;5053990;28;20034;-86
2021/10/16 02:12:36;;;;;;;;;;;;;;;19.50;42.02;102274.22;5021643;28;19928;-86
2021/10/16 02:15:01;;;;;;;;;;;;;;;19.32;42.17;102267.16;5022130;28;19999;-87
2021/10/16 02:17:26;;;;;;;;;;;;;;;19.55;42.12;102277.59;5023081;28;19922;-87
2021/10/16 02:19:52;;;;;;;;;;;;;;;19.24;42.72;102271.25;5022297;28;19941;-87
2021/10/16 02:22:17;;;;;;;;;;;;;;;19.50;42.19;102271.47;5021369;28;19928;-87
2021/10/16 02:24:42;;;;;;;;;;;;;;;19.28;42.81;102271.97;5022519;28;19925;-85
2021/10/16 02:27:07;;;;;;;;;;;;;;;19.06;43.35;102259.53;5021054;28;19928;-86
2021/10/16 02:29:33;;;;;;;;;;;;;;;19.22;43.09;102267.72;5020877;28;20009;-87
2021/10/16 02:31:58;;;;;;;;;;;;;;;19.02;43.43;102265.31;5020547;28;20590;-86
2021/10/16 02:34:23;;;;;;;;;;;;;;;18.91;43.94;102265.97;5020731;28;19917;-86
2021/10/16 02:36:48;;;;;;;;;;;;;;;19.15;43.47;102265.47;5021453;28;19945;-86
2021/10/16 02:39:14;;;;;;;;;;;;;;;19.16;43.31;102264.44;5022584;28;20379;-85
2021/10/16 02:41:39;;;;;;;;;;;;;;;19.18;43.06;102259.78;5020584;28;19918;-83
2021/10/16 02:44:04;;;;;;;;;;;;;;;19.22;43.15;102267.72;5020692;28;19941;-85
2021/10/16 02:46:30;;;;;;;;;;;;;;;19.17;43.25;102266.22;5055127;28;20011;-86
2021/10/16 02:48:55;;;;;;;;;;;;;;;18.73;44.23;102270.66;5022778;28;19917;-87
2021/10/16 02:51:20;;;;;;;;;;;;;;;18.94;43.50;102276.75;5021145;28;19968;-85
2021/10/16 02:53:45;;;;;;;;;;;;;;;19.44;42.47;102280.09;5020728;28;19908;-85
2021/10/16 02:56:10;;;;;;;;;;;;;;;19.23;42.92;102276.81;5021421;28;19969;-87
2021/10/16 02:58:36;;;;;;;;;;;;;;;19.19;42.75;102272.50;5021224;28;20008;-85
2021/10/16 03:01:01;;;;;;;;;;;;;;;19.20;42.80;102282.50;5054030;28;19921;-86
2021/10/16 03:03:26;;;;;;;;;;;;;;;19.47;42.41;102278.06;5021963;28;19964;-87
2021/10/16 03:05:51;;;;;;;;;;;;;;;19.58;41.92;102273.75;5054154;28;19933;-85
2021/10/16 03:08:16;;;;;;;;;;;;;;;19.48;42.13;102274.31;5021583;28;19918;-86
2021/10/16 03:10:43;;;;;;;;;;;;;;;19.57;41.98;102281.09;5020731;28;19917;-86
2021/10/16 03:13:09;;;;;;;;;;;;;;;19.27;42.27;102281.16;5020484;28;19921;-85
2021/10/16 03:15:34;;;;;;;;;;;;;;;19.54;41.82;102283.16;5021408;28;19921;-86
2021/10/16 03:17:59;;;;;;;;;;;;;;;19.80;41.33;102287.03;5022414;28;20390;-87
2021/10/16 03:20:25;;;;;;;;;;;;;;;19.43;42.06;102283.81;5054460;28;20389;-87
2021/10/16 03:22:50;;;;;;;;;;;;;;;19.40;42.19;102284.91;5021138;28;19924;-86
2021/10/16 03:25:16;;;;;;;;;;;;;;;19.01;43.21;102285.47;5021335;28;19984;-86
2021/10/16 03:27:41;;;;;;;;;;;;;;;19.08;43.03;102275.91;5021691;28;19929;-86
2021/10/16 03:30:06;;;;;;;;;;;;;;;19.12;42.87;102280.22;5020521;28;19925;-85
2021/10/16 03:32:32;;;;;;;;;;;;;;;19.07;43.15;102274.16;5020104;28;19924;-85
2021/10/16 03:34:57;;;;;;;;;;;;;;;18.62;44.17;102275.91;5022350;28;19925;-86
2021/10/16 03:37:22;;;;;;;;;;;;;;;19.12;43.13;102261.91;5021966;28;20342;-86
2021/10/16 03:39:47;;;;;;;;;;;;;;;18.93;43.45;102266.75;5022800;28;20287;-86
2021/10/16 03:42:12;;;;;;;;;;;;;;;18.93;43.36;102272.22;5021794;28;19929;-86
2021/10/16 03:44:38;;;;;;;;;;;;;;;19.00;43.25;102262.66;5022816;28;19963;-86
2021/10/16 03:47:03;;;;;;;;;;;;;;;18.84;43.59;102268.16;5026230;28;19920;-86
2021/10/16 03:49:28;;;;;;;;;;;;;;;18.88;43.14;102263.41;5025289;28;19924;-85
2021/10/16 03:51:53;;;;;;;;;;;;;;;18.78;43.45;102258.44;5025149;28;19922;-86
2021/10/16 03:54:19;;;;;;;;;;;;;;;18.95;43.05;102262.06;5026406;28;19944;-86
2021/10/16 03:56:44;;;;;;;;;;;;;;;19.02;42.83;102268.94;5027092;28;19917;-85
2021/10/16 03:59:09;;;;;;;;;;;;;;;18.90;43.12;102266.94;5025963;28;19917;-86
2021/10/16 04:01:34;;;;;;;;;;;;;;;18.19;44.73;102257.34;5026148;28;19953;-86
2021/10/16 04:04:00;;;;;;;;;;;;;;;17.99;45.03;102261.22;5024925;28;19917;-85
2021/10/16 04:06:25;;;;;;;;;;;;;;;18.06;45.17;102269.00;5057722;28;19928;-85
2021/10/16 04:08:51;;;;;;;;;;;;;;;18.24;44.43;102255.25;5025045;28;19921;-86
2021/10/16 04:11:17;;;;;;;;;;;;;;;17.92;45.43;102257.97;5026441;28;19959;-86
2021/10/16 04:13:42;;;;;;;;;;;;;;;18.29;44.38;102255.84;5026261;28;19917;-85
2021/10/16 04:16:07;;;;;;;;;;;;;;;18.04;44.38;102260.00;5026505;28;19925;-86
2021/10/16 04:18:32;;;;;;;;;;;;;;;18.12;44.67;102262.28;5025135;28;19918;-85
2021/10/16 04:20:58;;;;;;;;;;;;;;;18.15;44.13;102259.38;5023218;28;19922;-85
2021/10/16 04:23:23;;;;;;;;;;;;;;;18.05;44.46;102255.41;5024202;28;19917;-85
2021/10/16 04:25:48;;;;;;;;;;;;;;;17.87;44.82;102260.00;5024718;28;19952;-85
2021/10/16 04:28:13;;;;;;;;;;;;;;;17.92;44.65;102251.56;5025664;28;20279;-85
2021/10/16 04:30:39;;;;;;;;;;;;;;;17.67;44.91;102262.00;5024507;28;19925;-86
2021/10/16 04:33:04;;;;;;;;;;;;;;;17.94;44.16;102266.09;5024443;28;19976;-85
2021/10/16 04:35:29;;;;;;;;;;;;;;;18.22;43.54;102262.63;5023193;28;20419;-86
2021/10/16 04:37:55;;;;;;;;;;;;;;;18.27;42.87;102263.28;5023755;28;19922;-85
2021/10/16 04:40:22;;;;;;;;;;;;;;;18.13;43.67;102254.94;5057571;28;20020;-85
2021/10/16 04:42:49;;;;;;;;;;;;;;;18.34;43.11;102261.97;5025635;28;19929;-85
2021/10/16 04:45:14;;;;;;;;;;;;;;;18.23;43.11;102272.63;5040597;28;19922;-86
2021/10/16 04:47:39;;;;;;;;;;;;;;;18.06;43.57;102260.78;5057300;28;20057;-85
2021/10/16 04:50:05;;;;;;;;;;;;;;;17.92;43.51;102273.47;5024616;28;19925;-85
2021/10/16 04:52:31;;;;;;;;;;;;;;;17.60;44.08;102267.91;5023640;28;19967;-86
2021/10/16 04:54:56;;;;;;;;;;;;;;;17.52;44.04;102273.81;5025570;28;20359;-85
2021/10/16 04:57:22;;;;;;;;;;;;;;;17.35;44.26;102270.13;5022933;28;19992;-85
2021/10/16 04:59:47;;;;;;;;;;;;;;;17.70;43.16;102271.91;5055965;28;20659;-85
2021/10/16 05:02:12;;;;;;;;;;;;;;;17.85;43.06;102262.84;5023258;28;19923;-85
2021/10/16 05:04:37;;;;;;;;;;;;;;;17.67;43.14;102264.75;5023690;28;19921;-86
2021/10/16 05:07:03;;;;;;;;;;;;;;;17.84;42.99;102265.66;5022389;28;19918;-85
2021/10/16 05:09:29;;;;;;;;;;;;;;;18.08;42.53;102257.97;5021619;28;19918;-85
2021/10/16 05:11:54;;;;;;;;;;;;;;;17.70;43.37;102256.38;5022712;28;19917;-83
2021/10/16 05:14:19;;;;;;;;;;;;;;;17.35;43.93;102267.38;5022353;28;19999;-84
2021/10/16 05:16:44;;;;;;;;;;;;;;;17.17;44.88;102262.91;5022790;28;19921;-86
2021/10/16 05:19:10;;;;;;;;;;;;;;;17.45;44.26;102265.06;5022408;28;19913;-84
2021/10/16 05:21:35;;;;;;;;;;;;;;;17.83;43.33;102255.66;5022907;28;19918;-84
2021/10/16 05:24:00;;;;;;;;;;;;;;;17.52;43.88;102250.03;5022316;28;20352;-85
2021/10/16 05:26:26;;;;;;;;;;;;;;;17.70;43.50;102253.63;5022842;28;20383;-84
2021/10/16 05:28:55;;;;;;;;;;;;;;;17.63;43.56;102245.84;5055213;28;19918;-85
2021/10/16 05:31:20;;;;;;;;;;;;;;;17.66;43.08;102256.63;5021425;28;19999;-86
2021/10/16 05:33:45;;;;;;;;;;;;;;;17.64;43.39;102253.97;5055379;28;19917;-85
2021/10/16 05:36:10;;;;;;;;;;;;;;;17.81;43.16;102254.88;5021737;28;19948;-84
2021/10/16 05:38:35;;;;;;;;;;;;;;;18.11;42.60;102249.56;5053509;28;19918;-86
2021/10/16 05:41:01;;;;;;;;;;;;;;;17.87;43.01;102258.19;5020277;28;19918;-85
2021/10/16 05:43:26;;;;;;;;;;;;;;;17.88;43.28;102248.97;5020755;28;19939;-86
2021/10/16 05:45:51;;;;;;;;;;;;;;;17.51;44.43;102250.13;5021426;28;19932;-85
2021/10/16 05:48:16;;;;;;;;;;;;;;;17.77;43.97;102258.75;5020990;28;19948;-86
2021/10/16 05:50:42;;;;;;;;;;;;;;;17.89;43.36;102256.25;5021787;28;20371;-86
2021/10/16 05:53:07;;;;;;;;;;;;;;;18.09;42.91;102254.25;5022079;28;19921;-86
2021/10/16 05:55:32;;;;;;;;;;;;;;;17.65;43.94;102263.94;5021798;28;19924;-86
2021/10/16 05:57:57;;;;;;;;;;;;;;;18.20;42.71;102261.84;5021259;28;20010;-86
2021/10/16 06:00:22;;;;;;;;;;;;;;;17.81;43.59;102258.50;5022418;28;19918;-86
2021/10/16 06:02:48;;;;;;;;;;;;;;;17.56;44.71;102255.34;5053516;28;19921;-87
2021/10/16 06:05:13;;;;;;;;;;;;;;;17.42;44.92;102261.56;5020476;28;19989;-86
2021/10/16 06:07:38;;;;;;;;;;;;;;;17.55;44.89;102251.75;5021212;28;19973;-86
2021/10/16 06:10:05;;;;;;;;;;;;;;;17.22;45.37;102258.06;5020627;28;19964;-85
2021/10/16 06:12:30;;;;;;;;;;;;;;;17.80;44.34;102254.00;5020614;28;19917;-86
2021/10/16 06:14:55;;;;;;;;;;;;;;;18.03;43.71;102258.22;5020374;28;19925;-86
2021/10/16 06:17:20;;;;;;;;;;;;;;;18.01;43.84;102264.75;5020418;28;19985;-86
2021/10/16 06:19:46;;;;;;;;;;;;;;;17.67;44.27;102256.53;5022496;28;19924;-86
2021/10/16 06:22:11;;;;;;;;;;;;;;;17.09;46.09;102260.56;5018329;28;19981;-87
2021/10/16 06:24:37;;;;;;;;;;;;;;;17.32;45.61;102259.34;5018195;28;19924;-86
2021/10/16 06:27:02;;;;;;;;;;;;;;;17.68;44.86;102265.66;5017083;28;20353;-85
2021/10/16 06:29:29;;;;;;;;;;;;;;;17.70;44.80;102266.44;5017542;28;19975;-86
2021/10/16 06:31:55;;;;;;;;;;;;;;;17.71;44.83;102271.81;5050802;28;19917;-85
2021/10/16 06:34:20;;;;;;;;;;;;;;;17.61;44.84;102272.41;5018299;28;19928;-85
2021/10/16 06:36:45;;;;;;;;;;;;;;;18.19;43.80;102268.28;5018270;28;19918;-86
2021/10/16 06:39:10;;;;;;;;;;;;;;;18.18;43.94;102269.28;5017103;28;19918;-82
2021/10/16 06:41:36;;;;;;;;;;;;;;;17.93;44.40;102264.31;5017829;28;19997;-84
2021/10/16 06:44:01;;;;;;;;;;;;;;;17.80;44.55;102264.06;5017560;28;20425;-84
2021/10/16 06:46:26;;;;;;;;;;;;;;;17.66;44.92;102257.53;5018916;28;20293;-83
2021/10/16 06:48:51;;;;;;;;;;;;;;;17.87;44.35;102268.22;5019675;28;19921;-85
2021/10/16 06:51:17;;;;;;;;;;;;;;;18.00;44.29;102272.09;5020135;28;19918;-85
2021/10/16 06:53:43;;;;;;;;;;;;;;;18.32;43.25;102268.50;5034667;28;19906;-83
2021/10/16 06:56:08;;;;;;;;;;;;;;;18.21;43.85;102277.34;5017213;28;19951;-83
2021/10/16 06:58:34;;;;;;;;;;;;;;;18.34;43.63;102275.66;5018194;28;20389;-84
2021/10/16 07:01:05;;;;;;;;;;;;;;;18.18;43.87;102264.69;5019203;28;19913;-86
2021/10/16 07:03:30;;;;;;;;;;;;;;;18.43;43.54;102271.47;5019368;28;19925;-85
2021/10/16 07:05:56;;;;;;;;;;;;;;;18.28;44.23;102267.75;5018047;28;19921;-85
2021/10/16 07:08:22;;;;;;;;;;;;;;;18.13;44.44;102265.91;5017177;28;19944;-85
2021/10/16 07:10:48;;;;;;;;;;;;;;;18.93;42.96;102269.47;5049512;28;19917;-85
2021/10/16 07:13:13;;;;;;;;;;;;;;;19.36;41.72;102275.09;5012674;28;19921;-85
2021/10/16 07:15:38;;;;;;;;;;;;;;;18.27;44.31;102276.06;5003957;28;20148;-84
2021/10/16 07:18:03;;;;;;;;;;;;;;;18.90;43.40;102275.16;4995958;28;19918;-83
2021/10/16 07:20:29;;;;;;;;;;;;;;;19.17;42.70;102277.22;4999585;28;19918;-86
2021/10/16 07:22:55;;;;;;;;;;;;;;;19.17;42.66;102279.94;5014920;28;20251;-84
2021/10/16 07:25:21;;;;;;;;;;;;;;;19.04;43.29;102283.44;5022813;28;19921;-84
2021/10/16 07:27:47;;;;;;;;;;;;;;;18.92;43.56;102282.31;5022063;28;20400;-84
2021/10/16 07:30:14;;;;;;;;;;;;;;;19.19;43.65;102280.72;5019866;28;19918;-84
2021/10/16 07:32:40;;;;;;;;;;;;;;;19.42;43.19;102285.69;5019699;28;19971;-84
2021/10/16 07:35:05;;;;;;;;;;;;;;;19.44;43.39;102283.72;5020241;28;19922;-86
2021/10/16 07:37:31;;;;;;;;;;;;;;;19.22;43.52;102291.50;5021594;28;19924;-87
2021/10/16 07:39:56;;;;;;;;;;;;;;;19.08;44.47;102293.25;5022039;28;20340;-88
2021/10/16 07:42:21;;;;;;;;;;;;;;;19.59;43.41;102292.00;5021695;28;19975;-87
2021/10/16 07:44:46;;;;;;;;;;;;;;;19.06;44.56;102295.19;5021585;28;19925;-84
2021/10/16 07:47:12;;;;;;;;;;;;;;;19.50;43.54;102293.44;5036950;28;20291;-86
2021/10/16 07:49:37;;;;;;;;;;;;;;;19.59;43.58;102295.59;5020063;28;19924;-86
2021/10/16 07:52:02;;;;;;;;;;;;;;;19.05;44.66;102292.53;5037292;28;20286;-87
2021/10/16 07:54:27;;;;;;;;;;;;;;;19.33;43.96;102289.00;5021792;28;20119;-88
2021/10/16 07:56:52;;;;;;;;;;;;;;;19.27;43.86;102295.75;5038216;28;20008;-88
2021/10/16 07:59:18;;;;;;;;;;;;;;;19.35;43.72;102289.78;5035759;28;20062;-87
2021/10/16 08:01:43;;;;;;;;;;;;;;;19.63;43.57;102299.94;5020735;28;19948;-88
2021/10/16 08:04:08;;;;;;;;;;;;;;;19.01;44.66;102297.34;5020357;28;19920;-86
2021/10/16 08:06:33;;;;;;;;;;;;;;;19.41;43.61;102294.88;5020261;28;20416;-87
2021/10/16 08:09:00;;;;;;;;;;;;;;;19.70;43.58;102299.53;5020763;28;19913;-87
2021/10/16 08:11:25;;;;;;;;;;;;;;;20.00;42.58;102293.97;5020465;28;19956;-88
2021/10/16 08:13:51;;;;;;;;;;;;;;;19.69;43.33;102304.16;5020509;28;19917;-92
2021/10/16 08:16:16;;;;;;;;;;;;;;;19.77;43.27;102289.94;5021689;28;20413;-88
2021/10/16 08:18:41;;;;;;;;;;;;;;;20.26;42.11;102289.56;5035333;28;19925;-90
2021/10/16 08:21:07;;;;;;;;;;;;;;;20.49;41.64;102295.41;5020927;28;19944;-88
2021/10/16 08:23:32;;;;;;;;;;;;;;;19.54;43.03;102295.03;5019697;28;20326;-85
2021/10/16 08:25:59;;;;;;;;;;;;;;;18.77;44.78;102300.53;5020197;28;19937;-86
2021/10/16 08:28:28;;;;;;;;;;;;;;;19.87;42.78;102298.50;5020678;28;19924;-88
2021/10/16 08:30:53;;;;;;;;;;;;;;;20.02;42.61;102300.28;5019468;28;19918;-88
2021/10/16 08:33:19;;;;;;;;;;;;;;;19.55;43.46;102299.53;5014407;28;19965;-87
2021/10/16 08:35:45;;;;;;;;;;;;;;;19.76;43.03;102304.66;4999745;28;19922;-87
2021/10/16 08:38:10;;;;;;;;;;;;;;;19.89;42.62;102307.53;4999950;28;20369;-86
2021/10/16 08:40:37;;;;;;;;;;;;;;;20.24;42.05;102307.13;4998224;28;20363;-84
2021/10/16 08:43:02;;;;;;;;;;;;;;;20.32;41.90;102304.75;4999431;28;19918;-87
2021/10/16 08:45:27;;;;;;;;;;;;;;;20.71;40.91;102308.59;4998901;28;19952;-87
2021/10/16 08:47:54;;;;;;;;;;;;;;;20.34;41.74;102306.41;4999178;28;20025;-86
2021/10/16 08:50:19;;;;;;;;;;;;;;;20.47;41.43;102317.50;4998880;28;19918;-86
2021/10/16 08:52:45;;;;;;;;;;;;;;;20.22;41.95;102320.09;4998056;28;19918;-88
2021/10/16 08:55:10;;;;;;;;;;;;;;;20.84;40.58;102309.53;4997702;28;19918;-88
2021/10/16 08:57:38;;;;;;;;;;;;;;;20.25;41.85;102319.88;4997247;28;19918;-88
2021/10/16 09:00:22;;;;;;;;;;;;;;;20.58;41.25;102318.63;4996685;28;20060;-87
2021/10/16 09:02:47;;;;;;;;;;;;;;;20.27;41.99;102327.03;4997816;28;19965;-85
2021/10/16 09:05:13;;;;;;;;;;;;;;;20.83;40.51;102329.78;4996830;28;19925;-87
2021/10/16 09:07:39;;;;;;;;;;;;;;;20.59;41.01;102334.13;4998202;28;19921;-87
2021/10/16 09:10:20;;;;;;;;;;;;;;;20.35;41.60;102330.19;4998465;28;19922;-85
2021/10/16 09:12:46;;;;;;;;;;;;;;;20.35;41.40;102332.03;4997565;28;19940;-87
2021/10/16 09:15:24;;;;;;;;;;;;;;;20.57;41.18;102325.13;4997276;28;20028;-85
2021/10/16 09:18:05;;;;;;;;;;;;;;;20.42;41.42;102329.78;4996903;28;19918;-86
2021/10/16 09:20:35;;;;;;;;;;;;;;;20.74;40.59;102319.38;4997768;28;19979;-87
2021/10/16 09:23:07;;;;;;;;;;;;;;;20.41;41.13;102328.91;4998284;28;19924;-86
2021/10/16 09:25:32;;;;;;;;;;;;;;;20.69;40.15;102318.84;4999540;28;20395;-87
2021/10/16 09:28:16;;;;;;;;;;;;;;;19.83;41.46;102322.53;4999960;28;19921;-87
2021/10/16 09:30:48;;;;;;;;;;;;;;;19.91;41.56;102324.78;4999239;28;20056;-86
2021/10/16 09:33:13;;;;;;;;;;;;;;;20.00;41.14;102325.09;4998394;28;19918;-87
2021/10/16 09:35:39;;;;;;;;;;;;;;;19.69;41.36;102320.63;4998384;28;19928;-88
2021/10/16 09:38:04;;;;;;;;;;;;;;;19.49;41.72;102319.16;4998888;28;19924;-87
2021/10/16 09:40:33;;;;;;;;;;;;;;;20.01;41.41;102317.75;4998339;28;19902;-87
2021/10/16 09:42:58;;;;;;;;;;;;;;;19.74;41.76;102325.84;4997423;28;19998;-86
2021/10/16 09:45:25;;;;;;;;;;;;;;;19.91;41.91;102322.91;4998443;28;19926;-85
2021/10/16 09:47:54;;;;;;;;;;;;;;;20.37;41.17;102324.56;4998628;28;20103;-86
2021/10/16 09:50:21;;;;;;;;;;;;;;;20.52;40.47;102326.31;4997924;28;19925;-86
2021/10/16 09:52:48;;;;;;;;;;;;;;;20.17;41.42;102324.00;4997070;28;20299;-86
2021/10/16 09:55:16;;;;;;;;;;;;;;;20.67;40.07;102327.19;4996883;28;20385;-87
2021/10/16 09:57:42;;;;;;;;;;;;;;;19.26;42.32;102328.78;4997032;28;20402;-85
2021/10/16 10:00:08;;;;;;;;;;;;;;;19.65;41.76;102330.91;4998281;28;19917;-87
2021/10/16 10:02:33;;;;;;;;;;;;;;;19.44;42.15;102332.25;4997560;28;20372;-87
2021/10/16 10:05:01;;;;;;;;;;;;;;;19.75;41.89;102333.97;4997012;28;19917;-86
2021/10/16 10:07:27;;;;;;;;;;;;;;;19.98;41.34;102338.03;4997357;28;19917;-87
2021/10/16 10:09:52;;;;;;;;;;;;;;;20.44;40.87;102328.69;4997613;28;20275;-87
2021/10/16 10:12:18;;;;;;;;;;;;;;;20.41;40.75;102344.50;4997334;28;19917;-87
2021/10/16 10:14:47;;;;;;;;;;;;;;;20.21;41.78;102334.81;4998306;28;19933;-87
2021/10/16 10:17:15;;;;;;;;;;;;;;;21.29;39.40;102327.59;4996822;28;19898;-87
2021/10/16 10:19:42;;;;;;;;;;;;;;;20.40;41.31;102329.88;4999057;28;19917;-87
2021/10/16 10:22:12;;;;;;;;;;;;;;;19.38;42.22;102333.50;4997536;28;19921;-87
2021/10/16 10:24:38;;;;;;;;;;;;;;;20.56;40.43;102329.72;4997116;28;19937;-86
2021/10/16 10:27:07;;;;;;;;;;;;;;;20.44;40.47;102331.44;4998442;28;19922;-87
2021/10/16 10:29:37;;;;;;;;;;;;;;;20.07;41.54;102331.06;4996810;28;19918;-87
2021/10/16 10:32:07;;;;;;;;;;;;;;;19.93;41.73;102318.22;4997223;28;19965;-87
2021/10/16 10:34:38;;;;;;;;;;;;;;;20.22;41.41;102318.22;4996374;28;19971;-88
2021/10/16 10:37:14;;;;;;;;;;;;;;;18.86;43.47;102321.09;4996588;28;20341;-86
2021/10/16 10:39:44;;;;;;;;;;;;;;;19.21;42.85;102317.19;4996114;28;19941;-88
2021/10/16 10:42:09;;;;;;;;;;;;;;;19.34;43.09;102320.06;4996008;28;19928;-86
2021/10/16 10:44:41;;;;;;;;;;;;;;;19.67;42.72;102314.34;4996374;28;20291;-85
2021/10/16 10:47:22;;;;;;;;;;;;;;;19.58;42.33;102309.44;4996487;28;19983;-86
2021/10/16 10:49:48;;;;;;;;;;;;;;;19.36;43.03;102315.38;4998127;28;20024;-86
2021/10/16 10:52:14;;;;;;;;;;;;;;;19.71;41.92;102318.66;4995547;28;20410;-83
2021/10/16 10:54:39;;;;;;;;;;;;;;;19.76;41.28;102319.28;4995521;28;19918;-86
2021/10/16 10:57:04;;;;;;;;;;;;;;;19.79;41.97;102305.38;4996403;28;20386;-85
2021/10/16 10:59:48;;;;;;;;;;;;;;;19.70;41.17;102316.91;4996066;28;19918;-85
2021/10/16 11:02:27;;;;;;;;;;;;;;;20.44;40.15;102301.22;4996068;28;20387;-87
2021/10/16 11:04:54;;;;;;;;;;;;;;;19.91;41.23;102300.06;4995811;28;19918;-86
2021/10/16 11:07:46;;;;;;;;;;;;;;;20.18;40.86;102301.06;4996378;28;20363;-88
2021/10/16 11:10:12;;;;;;;;;;;;;;;20.84;39.75;102304.03;4997507;28;19924;-86
2021/10/16 11:12:39;;;;;;;;;;;;;;;20.34;39.86;102311.03;4996322;28;20303;-87
2021/10/16 11:15:06;;;;;;;;;;;;;;;19.64;41.28;102306.28;4996301;28;19925;-86
2021/10/16 11:17:36;;;;;;;;;;;;;;;20.77;40.02;102297.19;4996151;28;20264;-86
2021/10/16 11:20:04;;;;;;;;;;;;;;;20.45;39.88;102305.69;4996597;28;20012;-87
2021/10/16 11:22:39;;;;;;;;;;;;;;;20.56;39.48;102290.34;4995467;28;19922;-86
2021/10/16 11:25:05;;;;;;;;;;;;;;;19.98;39.81;102295.97;4995417;28;19973;-87
2021/10/16 11:27:30;;;;;;;;;;;;;;;20.98;38.20;102293.97;4996033;28;19941;-85
2021/10/16 11:29:55;;;;;;;;;;;;;;;21.05;38.43;102295.31;4995167;28;19949;-87
2021/10/16 11:32:24;;;;;;;;;;;;;;;21.43;37.66;102288.97;4996102;28;20012;-86
2021/10/16 11:34:54;;;;;;;;;;;;;;;19.78;39.34;102291.75;4996847;28;19969;-87
2021/10/16 11:37:34;;;;;;;;;;;;;;;20.91;37.28;102287.09;4996427;28;19941;-86
2021/10/16 11:40:00;;;;;;;;;;;;;;;21.69;37.08;102278.00;4996994;28;19917;-86
2021/10/16 11:42:26;;;;;;;;;;;;;;;21.20;37.33;102283.22;4995858;28;19918;-88
2021/10/16 11:44:51;;;;;;;;;;;;;;;21.31;37.18;102281.59;4996899;28;20385;-86
2021/10/16 11:47:17;;;;;;;;;;;;;;;21.21;37.07;102281.34;4995978;28;20001;-87
2021/10/16 11:49:43;;;;;;;;;;;;;;;21.31;36.79;102276.97;4997631;28;19940;-85
2021/10/16 11:52:21;;;;;;;;;;;;;;;21.08;37.47;102274.97;4995964;28;19973;-87
2021/10/16 11:54:46;;;;;;;;;;;;;;;20.40;38.33;102274.03;4997348;28;19921;-85
2021/10/16 11:57:23;;;;;;;;;;;;;;;21.00;36.72;102275.47;4995642;28;19952;-86
2021/10/16 11:59:48;;;;;;;;;;;;;;;20.28;37.80;102275.72;4995593;28;19922;-86
2021/10/16 12:02:31;;;;;;;;;;;;;;;20.53;37.29;102262.09;4996901;28;19945;-86
2021/10/16 12:05:09;;;;;;;;;;;;;;;20.41;37.93;102257.44;4997707;28;20009;-86
2021/10/16 12:07:34;;;;;;;;;;;;;;;20.18;37.81;102256.19;4998400;28;19941;-85
2021/10/16 12:10:18;;;;;;;;;;;;;;;19.86;38.88;102261.91;4999914;28;20375;-86
2021/10/16 12:13:00;;;;;;;;;;;;;;;20.24;37.89;102255.78;4999799;28;19917;-87
2021/10/16 12:15:26;;;;;;;;;;;;;;;20.82;36.84;102255.59;4999111;28;19980;-86
2021/10/16 12:17:51;;;;;;;;;;;;;;;20.91;36.42;102245.84;4999323;28;19921;-85
2021/10/16 12:20:16;;;;;;;;;;;;;;;20.28;37.26;102251.84;4999301;28;19965;-86
2021/10/16 12:22:55;;;;;;;;;;;;;;;20.91;36.36;102243.09;4998544;28;20367;-87
2021/10/16 12:25:20;;;;;;;;;;;;;;;20.44;37.44;102240.72;5000104;28;19949;-85
2021/10/16 12:27:57;;;;;;;;;;;;;;;20.80;36.97;102236.47;5000479;28;19940;-87
2021/10/16 12:30:22;;;;;;;;;;;;;;;20.66;37.10;102231.91;4998809;28;19918;-87
2021/10/16 12:33:06;;;;;;;;;;;;;;;20.35;37.62;102233.06;4998818;28;20395;-86